sensor_id;sensor_type;location;lat;lon;timestamp;P1;durP1;ratioP1;P2;durP2;ratioP2
44480;SDS011;30184;42.018;23.670;2023-12-28T00:00:28;18.80;;;8.65;;
44480;SDS011;30184;42.018;23.670;2023-12-28T00:02:58;17.42;;;7.03;;
44480;SDS011;30184;42.018;23.670;2023-12-28T00:05:28;13.68;;;7.82;;
44480;SDS011;30184;42.018;23.670;2023-12-28T00:08:00;15.52;;;9.23;;
44480;SDS011;30184;42.018;23.670;2023-12-28T00:10:30;32.80;;;12.35;;
44480;SDS011;30184;42.018;23.670;2023-12-28T00:13:00;38.13;;;12.05;;
44480;SDS011;30184;42.018;23.670;2023-12-28T00:15:30;41.00;;;14.50;;
44480;SDS011;30184;42.018;23.670;2023-12-28T00:18:00;60.67;;;15.95;;
44480;SDS011;30184;42.018;23.670;2023-12-28T00:20:31;23.73;;;9.75;;
44480;SDS011;30184;42.018;23.670;2023-12-28T00:23:03;40.15;;;14.25;;
44480;SDS011;30184;42.018;23.670;2023-12-28T00:25:34;52.25;;;14.52;;
44480;SDS011;30184;42.018;23.670;2023-12-28T00:28:04;31.25;;;11.48;;
44480;SDS011;30184;42.018;23.670;2023-12-28T00:30:34;50.65;;;15.65;;
44480;SDS011;30184;42.018;23.670;2023-12-28T00:33:05;29.58;;;11.98;;
44480;SDS011;30184;42.018;23.670;2023-12-28T00:35:36;28.40;;;9.00;;
44480;SDS011;30184;42.018;23.670;2023-12-28T00:38:08;30.55;;;8.25;;
44480;SDS011;30184;42.018;23.670;2023-12-28T00:40:42;35.92;;;10.27;;
44480;SDS011;30184;42.018;23.670;2023-12-28T00:43:11;29.50;;;9.35;;
44480;SDS011;30184;42.018;23.670;2023-12-28T00:45:43;8.95;;;5.43;;
44480;SDS011;30184;42.018;23.670;2023-12-28T00:48:14;22.08;;;8.52;;
44480;SDS011;30184;42.018;23.670;2023-12-28T00:50:44;27.45;;;10.38;;
44480;SDS011;30184;42.018;23.670;2023-12-28T00:53:15;6.55;;;4.38;;
44480;SDS011;30184;42.018;23.670;2023-12-28T00:55:45;15.50;;;6.63;;
44480;SDS011;30184;42.018;23.670;2023-12-28T00:58:15;19.98;;;7.25;;
44480;SDS011;30184;42.018;23.670;2023-12-28T01:00:45;21.75;;;8.25;;
44480;SDS011;30184;42.018;23.670;2023-12-28T01:03:15;7.68;;;4.50;;
44480;SDS011;30184;42.018;23.670;2023-12-28T01:05:45;11.20;;;5.47;;
44480;SDS011;30184;42.018;23.670;2023-12-28T01:08:20;17.55;;;4.95;;
44480;SDS011;30184;42.018;23.670;2023-12-28T01:10:58;15.65;;;7.13;;
44480;SDS011;30184;42.018;23.670;2023-12-28T01:13:33;17.60;;;7.35;;
44480;SDS011;30184;42.018;23.670;2023-12-28T01:16:09;23.63;;;8.77;;
44480;SDS011;30184;42.018;23.670;2023-12-28T01:18:47;18.45;;;8.82;;
44480;SDS011;30184;42.018;23.670;2023-12-28T01:22:16;30.58;;;9.40;;
44480;SDS011;30184;42.018;23.670;2023-12-28T01:25:29;13.77;;;5.35;;
44480;SDS011;30184;42.018;23.670;2023-12-28T01:28:05;6.55;;;4.75;;
44480;SDS011;30184;42.018;23.670;2023-12-28T01:31:23;18.10;;;6.72;;
44480;SDS011;30184;42.018;23.670;2023-12-28T01:33:54;18.77;;;6.97;;
44480;SDS011;30184;42.018;23.670;2023-12-28T01:36:24;22.90;;;8.73;;
44480;SDS011;30184;42.018;23.670;2023-12-28T01:38:54;25.15;;;9.02;;
44480;SDS011;30184;42.018;23.670;2023-12-28T01:41:25;24.67;;;10.75;;
44480;SDS011;30184;42.018;23.670;2023-12-28T01:43:55;14.82;;;6.82;;
44480;SDS011;30184;42.018;23.670;2023-12-28T01:46:24;14.18;;;7.30;;
44480;SDS011;30184;42.018;23.670;2023-12-28T01:48:53;29.13;;;11.25;;
44480;SDS011;30184;42.018;23.670;2023-12-28T01:51:24;28.33;;;8.90;;
44480;SDS011;30184;42.018;23.670;2023-12-28T01:53:54;18.17;;;6.25;;
44480;SDS011;30184;42.018;23.670;2023-12-28T01:56:28;20.00;;;6.90;;
44480;SDS011;30184;42.018;23.670;2023-12-28T01:59:00;22.13;;;6.75;;
44480;SDS011;30184;42.018;23.670;2023-12-28T02:01:31;16.33;;;6.57;;
44480;SDS011;30184;42.018;23.670;2023-12-28T02:04:00;12.65;;;5.32;;
44480;SDS011;30184;42.018;23.670;2023-12-28T02:06:33;11.10;;;4.57;;
44480;SDS011;30184;42.018;23.670;2023-12-28T02:09:02;13.68;;;4.95;;
44480;SDS011;30184;42.018;23.670;2023-12-28T02:11:34;11.05;;;5.22;;
44480;SDS011;30184;42.018;23.670;2023-12-28T02:14:03;6.95;;;4.10;;
44480;SDS011;30184;42.018;23.670;2023-12-28T02:16:36;25.17;;;5.20;;
44480;SDS011;30184;42.018;23.670;2023-12-28T02:19:14;8.75;;;5.38;;
44480;SDS011;30184;42.018;23.670;2023-12-28T02:21:52;7.78;;;4.40;;
44480;SDS011;30184;42.018;23.670;2023-12-28T02:24:25;6.07;;;2.70;;
44480;SDS011;30184;42.018;23.670;2023-12-28T02:26:56;4.65;;;3.05;;
44480;SDS011;30184;42.018;23.670;2023-12-28T02:29:28;8.32;;;4.15;;
44480;SDS011;30184;42.018;23.670;2023-12-28T02:31:59;6.15;;;3.20;;
44480;SDS011;30184;42.018;23.670;2023-12-28T02:34:34;7.13;;;3.92;;
44480;SDS011;30184;42.018;23.670;2023-12-28T02:37:11;6.30;;;3.90;;
44480;SDS011;30184;42.018;23.670;2023-12-28T02:39:45;5.97;;;3.72;;
44480;SDS011;30184;42.018;23.670;2023-12-28T02:42:19;10.45;;;5.55;;
44480;SDS011;30184;42.018;23.670;2023-12-28T02:45:00;9.70;;;4.85;;
44480;SDS011;30184;42.018;23.670;2023-12-28T02:47:30;4.00;;;2.78;;
44480;SDS011;30184;42.018;23.670;2023-12-28T02:49:59;8.07;;;5.32;;
44480;SDS011;30184;42.018;23.670;2023-12-28T02:53:26;7.28;;;3.60;;
44480;SDS011;30184;42.018;23.670;2023-12-28T02:55:58;7.00;;;3.60;;
44480;SDS011;30184;42.018;23.670;2023-12-28T02:58:32;8.50;;;5.25;;
44480;SDS011;30184;42.018;23.670;2023-12-28T03:01:04;5.45;;;4.13;;
44480;SDS011;30184;42.018;23.670;2023-12-28T03:03:36;5.65;;;4.05;;
44480;SDS011;30184;42.018;23.670;2023-12-28T03:06:06;5.80;;;3.97;;
44480;SDS011;30184;42.018;23.670;2023-12-28T03:08:39;6.28;;;4.18;;
44480;SDS011;30184;42.018;23.670;2023-12-28T03:11:11;17.48;;;5.30;;
44480;SDS011;30184;42.018;23.670;2023-12-28T03:13:46;7.20;;;3.75;;
44480;SDS011;30184;42.018;23.670;2023-12-28T03:16:16;7.10;;;3.97;;
44480;SDS011;30184;42.018;23.670;2023-12-28T03:18:46;3.83;;;2.80;;
44480;SDS011;30184;42.018;23.670;2023-12-28T03:21:15;7.90;;;3.10;;
44480;SDS011;30184;42.018;23.670;2023-12-28T03:23:45;11.77;;;3.33;;
44480;SDS011;30184;42.018;23.670;2023-12-28T03:26:14;7.05;;;3.28;;
44480;SDS011;30184;42.018;23.670;2023-12-28T03:28:56;11.38;;;4.95;;
44480;SDS011;30184;42.018;23.670;2023-12-28T03:31:26;7.47;;;5.07;;
44480;SDS011;30184;42.018;23.670;2023-12-28T03:33:57;11.20;;;5.75;;
44480;SDS011;30184;42.018;23.670;2023-12-28T03:36:29;6.93;;;3.58;;
44480;SDS011;30184;42.018;23.670;2023-12-28T03:39:21;7.10;;;4.22;;
44480;SDS011;30184;42.018;23.670;2023-12-28T03:44:36;15.93;;;4.22;;
44480;SDS011;30184;42.018;23.670;2023-12-28T03:47:18;9.95;;;5.05;;
44480;SDS011;30184;42.018;23.670;2023-12-28T03:49:56;12.30;;;5.35;;
44480;SDS011;30184;42.018;23.670;2023-12-28T03:52:32;8.38;;;3.95;;
44480;SDS011;30184;42.018;23.670;2023-12-28T03:55:08;9.15;;;3.63;;
44480;SDS011;30184;42.018;23.670;2023-12-28T03:57:46;8.30;;;2.85;;
44480;SDS011;30184;42.018;23.670;2023-12-28T04:00:19;6.90;;;4.15;;
44480;SDS011;30184;42.018;23.670;2023-12-28T04:02:51;13.02;;;4.57;;
44480;SDS011;30184;42.018;23.670;2023-12-28T04:05:29;8.10;;;5.22;;
44480;SDS011;30184;42.018;23.670;2023-12-28T04:08:05;10.00;;;3.83;;
44480;SDS011;30184;42.018;23.670;2023-12-28T04:11:14;7.35;;;3.50;;
44480;SDS011;30184;42.018;23.670;2023-12-28T04:13:52;8.10;;;4.80;;
44480;SDS011;30184;42.018;23.670;2023-12-28T04:16:57;10.95;;;5.13;;
44480;SDS011;30184;42.018;23.670;2023-12-28T04:19:37;8.70;;;4.70;;
44480;SDS011;30184;42.018;23.670;2023-12-28T04:22:18;8.25;;;4.88;;
44480;SDS011;30184;42.018;23.670;2023-12-28T04:25:52;13.18;;;7.00;;
44480;SDS011;30184;42.018;23.670;2023-12-28T04:28:21;12.23;;;6.72;;
44480;SDS011;30184;42.018;23.670;2023-12-28T04:30:51;13.02;;;7.82;;
44480;SDS011;30184;42.018;23.670;2023-12-28T04:33:22;21.10;;;8.52;;
44480;SDS011;30184;42.018;23.670;2023-12-28T04:35:52;14.20;;;6.90;;
44480;SDS011;30184;42.018;23.670;2023-12-28T04:38:21;12.10;;;5.22;;
44480;SDS011;30184;42.018;23.670;2023-12-28T04:40:53;14.27;;;6.80;;
44480;SDS011;30184;42.018;23.670;2023-12-28T04:43:24;16.20;;;7.88;;
44480;SDS011;30184;42.018;23.670;2023-12-28T04:45:56;20.27;;;10.27;;
44480;SDS011;30184;42.018;23.670;2023-12-28T04:48:34;16.02;;;8.77;;
44480;SDS011;30184;42.018;23.670;2023-12-28T04:51:12;29.00;;;16.80;;
44480;SDS011;30184;42.018;23.670;2023-12-28T04:53:47;36.72;;;15.65;;
44480;SDS011;30184;42.018;23.670;2023-12-28T04:56:38;40.65;;;15.82;;
44480;SDS011;30184;42.018;23.670;2023-12-28T04:59:20;31.08;;;13.25;;
44480;SDS011;30184;42.018;23.670;2023-12-28T05:02:07;78.60;;;24.63;;
44480;SDS011;30184;42.018;23.670;2023-12-28T05:04:44;53.38;;;19.75;;
44480;SDS011;30184;42.018;23.670;2023-12-28T05:07:20;72.47;;;29.58;;
44480;SDS011;30184;42.018;23.670;2023-12-28T05:10:08;23.83;;;8.80;;
44480;SDS011;30184;42.018;23.670;2023-12-28T05:12:41;19.60;;;7.50;;
44480;SDS011;30184;42.018;23.670;2023-12-28T05:15:19;33.22;;;14.40;;
44480;SDS011;30184;42.018;23.670;2023-12-28T05:17:51;37.67;;;13.95;;
44480;SDS011;30184;42.018;23.670;2023-12-28T05:20:23;22.55;;;11.10;;
44480;SDS011;30184;42.018;23.670;2023-12-28T05:22:54;22.83;;;12.45;;
44480;SDS011;30184;42.018;23.670;2023-12-28T05:25:28;14.52;;;6.90;;
44480;SDS011;30184;42.018;23.670;2023-12-28T05:28:11;8.25;;;6.18;;
44480;SDS011;30184;42.018;23.670;2023-12-28T05:30:43;12.63;;;8.02;;
44480;SDS011;30184;42.018;23.670;2023-12-28T05:33:14;13.40;;;7.72;;
44480;SDS011;30184;42.018;23.670;2023-12-28T05:35:47;20.85;;;8.07;;
44480;SDS011;30184;42.018;23.670;2023-12-28T05:38:21;23.52;;;10.35;;
44480;SDS011;30184;42.018;23.670;2023-12-28T05:40:53;21.90;;;10.82;;
44480;SDS011;30184;42.018;23.670;2023-12-28T05:43:26;35.30;;;16.92;;
44480;SDS011;30184;42.018;23.670;2023-12-28T05:45:58;44.10;;;17.92;;
44480;SDS011;30184;42.018;23.670;2023-12-28T05:48:31;98.88;;;42.20;;
44480;SDS011;30184;42.018;23.670;2023-12-28T05:51:06;82.95;;;35.90;;
44480;SDS011;30184;42.018;23.670;2023-12-28T05:53:40;51.05;;;22.33;;
44480;SDS011;30184;42.018;23.670;2023-12-28T05:56:18;49.85;;;22.02;;
44480;SDS011;30184;42.018;23.670;2023-12-28T05:59:04;52.72;;;24.05;;
44480;SDS011;30184;42.018;23.670;2023-12-28T06:01:41;49.55;;;21.42;;
44480;SDS011;30184;42.018;23.670;2023-12-28T06:04:11;55.80;;;21.83;;
44480;SDS011;30184;42.018;23.670;2023-12-28T06:06:43;78.25;;;29.05;;
44480;SDS011;30184;42.018;23.670;2023-12-28T06:09:18;133.35;;;53.22;;
44480;SDS011;30184;42.018;23.670;2023-12-28T06:11:58;78.75;;;34.13;;
44480;SDS011;30184;42.018;23.670;2023-12-28T06:14:34;53.50;;;23.88;;
44480;SDS011;30184;42.018;23.670;2023-12-28T06:17:15;86.97;;;31.30;;
44480;SDS011;30184;42.018;23.670;2023-12-28T06:19:48;58.53;;;25.67;;
44480;SDS011;30184;42.018;23.670;2023-12-28T06:23:32;63.22;;;28.70;;
44480;SDS011;30184;42.018;23.670;2023-12-28T06:26:06;46.85;;;21.42;;
44480;SDS011;30184;42.018;23.670;2023-12-28T06:28:39;43.00;;;20.48;;
44480;SDS011;30184;42.018;23.670;2023-12-28T06:31:11;51.28;;;20.58;;
44480;SDS011;30184;42.018;23.670;2023-12-28T06:33:41;47.20;;;19.75;;
44480;SDS011;30184;42.018;23.670;2023-12-28T06:36:13;36.45;;;17.98;;
44480;SDS011;30184;42.018;23.670;2023-12-28T06:38:47;49.53;;;21.48;;
44480;SDS011;30184;42.018;23.670;2023-12-28T06:41:22;75.60;;;26.88;;
44480;SDS011;30184;42.018;23.670;2023-12-28T06:43:52;45.20;;;19.90;;
44480;SDS011;30184;42.018;23.670;2023-12-28T06:46:23;44.72;;;17.35;;
44480;SDS011;30184;42.018;23.670;2023-12-28T06:48:53;40.78;;;22.73;;
44480;SDS011;30184;42.018;23.670;2023-12-28T06:51:22;36.50;;;19.33;;
44480;SDS011;30184;42.018;23.670;2023-12-28T06:53:54;35.45;;;19.67;;
44480;SDS011;30184;42.018;23.670;2023-12-28T06:56:25;43.05;;;20.13;;
44480;SDS011;30184;42.018;23.670;2023-12-28T06:58:54;62.58;;;22.27;;
44480;SDS011;30184;42.018;23.670;2023-12-28T07:01:24;44.03;;;20.58;;
44480;SDS011;30184;42.018;23.670;2023-12-28T07:03:53;27.02;;;15.93;;
44480;SDS011;30184;42.018;23.670;2023-12-28T07:06:23;40.08;;;16.30;;
44480;SDS011;30184;42.018;23.670;2023-12-28T07:08:55;27.52;;;14.55;;
44480;SDS011;30184;42.018;23.670;2023-12-28T07:11:27;48.05;;;19.58;;
44480;SDS011;30184;42.018;23.670;2023-12-28T07:13:57;47.13;;;24.10;;
44480;SDS011;30184;42.018;23.670;2023-12-28T07:16:26;54.53;;;24.00;;
44480;SDS011;30184;42.018;23.670;2023-12-28T07:18:56;105.55;;;40.78;;
44480;SDS011;30184;42.018;23.670;2023-12-28T07:21:29;94.22;;;35.75;;
44480;SDS011;30184;42.018;23.670;2023-12-28T07:24:02;75.53;;;33.38;;
44480;SDS011;30184;42.018;23.670;2023-12-28T07:26:33;60.67;;;29.38;;
44480;SDS011;30184;42.018;23.670;2023-12-28T07:29:04;63.13;;;31.38;;
44480;SDS011;30184;42.018;23.670;2023-12-28T07:31:35;50.85;;;27.75;;
44480;SDS011;30184;42.018;23.670;2023-12-28T07:34:07;67.05;;;30.05;;
44480;SDS011;30184;42.018;23.670;2023-12-28T07:36:45;50.75;;;25.65;;
44480;SDS011;30184;42.018;23.670;2023-12-28T07:39:18;52.67;;;22.65;;
44480;SDS011;30184;42.018;23.670;2023-12-28T07:42:00;64.45;;;29.27;;
44480;SDS011;30184;42.018;23.670;2023-12-28T07:44:32;60.70;;;26.77;;
44480;SDS011;30184;42.018;23.670;2023-12-28T07:47:04;40.72;;;21.75;;
44480;SDS011;30184;42.018;23.670;2023-12-28T07:49:39;44.63;;;22.83;;
44480;SDS011;30184;42.018;23.670;2023-12-28T07:52:14;55.70;;;27.60;;
44480;SDS011;30184;42.018;23.670;2023-12-28T07:57:34;79.90;;;37.83;;
44480;SDS011;30184;42.018;23.670;2023-12-28T08:00:08;124.47;;;56.17;;
44480;SDS011;30184;42.018;23.670;2023-12-28T08:02:43;128.60;;;52.95;;
44480;SDS011;30184;42.018;23.670;2023-12-28T08:05:16;84.82;;;36.58;;
44480;SDS011;30184;42.018;23.670;2023-12-28T08:07:58;51.88;;;27.80;;
44480;SDS011;30184;42.018;23.670;2023-12-28T08:10:30;94.72;;;40.55;;
44480;SDS011;30184;42.018;23.670;2023-12-28T08:13:01;63.53;;;30.10;;
44480;SDS011;30184;42.018;23.670;2023-12-28T08:15:32;93.38;;;40.35;;
44480;SDS011;30184;42.018;23.670;2023-12-28T08:18:04;157.02;;;83.40;;
44480;SDS011;30184;42.018;23.670;2023-12-28T08:20:40;76.72;;;35.10;;
44480;SDS011;30184;42.018;23.670;2023-12-28T08:23:31;71.50;;;31.77;;
44480;SDS011;30184;42.018;23.670;2023-12-28T08:26:28;86.88;;;36.38;;
44480;SDS011;30184;42.018;23.670;2023-12-28T08:29:03;59.03;;;30.67;;
44480;SDS011;30184;42.018;23.670;2023-12-28T08:31:35;80.68;;;38.85;;
44480;SDS011;30184;42.018;23.670;2023-12-28T08:34:14;59.63;;;27.90;;
44480;SDS011;30184;42.018;23.670;2023-12-28T08:36:44;54.70;;;24.90;;
44480;SDS011;30184;42.018;23.670;2023-12-28T08:39:14;46.97;;;24.38;;
44480;SDS011;30184;42.018;23.670;2023-12-28T08:41:45;38.80;;;17.23;;
44480;SDS011;30184;42.018;23.670;2023-12-28T08:44:15;67.82;;;25.38;;
44480;SDS011;30184;42.018;23.670;2023-12-28T08:46:45;39.58;;;19.45;;
44480;SDS011;30184;42.018;23.670;2023-12-28T08:49:15;36.78;;;18.05;;
44480;SDS011;30184;42.018;23.670;2023-12-28T08:51:45;39.15;;;18.95;;
44480;SDS011;30184;42.018;23.670;2023-12-28T08:54:15;45.83;;;20.27;;
44480;SDS011;30184;42.018;23.670;2023-12-28T08:56:49;47.08;;;21.95;;
44480;SDS011;30184;42.018;23.670;2023-12-28T08:59:25;43.83;;;18.88;;
44480;SDS011;30184;42.018;23.670;2023-12-28T09:01:57;48.80;;;22.02;;
44480;SDS011;30184;42.018;23.670;2023-12-28T09:04:30;100.15;;;39.13;;
44480;SDS011;30184;42.018;23.670;2023-12-28T09:07:00;61.53;;;27.88;;
44480;SDS011;30184;42.018;23.670;2023-12-28T09:09:31;34.95;;;15.48;;
44480;SDS011;30184;42.018;23.670;2023-12-28T09:12:04;55.47;;;20.92;;
44480;SDS011;30184;42.018;23.670;2023-12-28T09:14:34;52.47;;;24.80;;
44480;SDS011;30184;42.018;23.670;2023-12-28T09:17:04;44.58;;;19.45;;
44480;SDS011;30184;42.018;23.670;2023-12-28T09:19:33;54.08;;;22.10;;
44480;SDS011;30184;42.018;23.670;2023-12-28T09:22:03;53.40;;;23.98;;
44480;SDS011;30184;42.018;23.670;2023-12-28T09:24:33;63.80;;;28.52;;
44480;SDS011;30184;42.018;23.670;2023-12-28T09:27:05;75.78;;;31.38;;
44480;SDS011;30184;42.018;23.670;2023-12-28T09:29:35;140.30;;;49.08;;
44480;SDS011;30184;42.018;23.670;2023-12-28T09:32:05;141.00;;;52.58;;
44480;SDS011;30184;42.018;23.670;2023-12-28T09:34:35;98.72;;;39.78;;
44480;SDS011;30184;42.018;23.670;2023-12-28T09:37:06;80.75;;;36.47;;
44480;SDS011;30184;42.018;23.670;2023-12-28T09:39:35;101.38;;;39.30;;
44480;SDS011;30184;42.018;23.670;2023-12-28T09:42:08;124.38;;;47.67;;
44480;SDS011;30184;42.018;23.670;2023-12-28T09:44:50;103.45;;;43.67;;
44480;SDS011;30184;42.018;23.670;2023-12-28T09:47:26;73.15;;;34.30;;
44480;SDS011;30184;42.018;23.670;2023-12-28T09:49:56;41.88;;;18.23;;
44480;SDS011;30184;42.018;23.670;2023-12-28T09:52:27;382.52;;;121.85;;
44480;SDS011;30184;42.018;23.670;2023-12-28T09:54:58;163.30;;;62.47;;
44480;SDS011;30184;42.018;23.670;2023-12-28T09:57:30;83.75;;;37.03;;
44480;SDS011;30184;42.018;23.670;2023-12-28T10:00:05;48.75;;;24.13;;
44480;SDS011;30184;42.018;23.670;2023-12-28T10:02:39;58.97;;;28.70;;
44480;SDS011;30184;42.018;23.670;2023-12-28T10:05:15;70.22;;;34.92;;
44480;SDS011;30184;42.018;23.670;2023-12-28T10:07:47;47.25;;;23.92;;
44480;SDS011;30184;42.018;23.670;2023-12-28T10:10:21;39.22;;;22.17;;
44480;SDS011;30184;42.018;23.670;2023-12-28T10:12:52;37.33;;;18.27;;
44480;SDS011;30184;42.018;23.670;2023-12-28T10:15:24;36.55;;;20.98;;
44480;SDS011;30184;42.018;23.670;2023-12-28T10:17:57;33.58;;;16.70;;
44480;SDS011;30184;42.018;23.670;2023-12-28T10:20:28;53.55;;;22.35;;
44480;SDS011;30184;42.018;23.670;2023-12-28T10:22:59;44.75;;;20.98;;
44480;SDS011;30184;42.018;23.670;2023-12-28T10:25:30;54.58;;;22.38;;
44480;SDS011;30184;42.018;23.670;2023-12-28T10:28:05;64.50;;;32.47;;
44480;SDS011;30184;42.018;23.670;2023-12-28T10:30:35;47.17;;;20.88;;
44480;SDS011;30184;42.018;23.670;2023-12-28T10:33:04;55.30;;;24.63;;
44480;SDS011;30184;42.018;23.670;2023-12-28T10:35:34;51.70;;;25.42;;
44480;SDS011;30184;42.018;23.670;2023-12-28T10:38:04;45.83;;;24.00;;
44480;SDS011;30184;42.018;23.670;2023-12-28T10:40:36;52.90;;;24.52;;
44480;SDS011;30184;42.018;23.670;2023-12-28T10:43:11;48.42;;;25.15;;
44480;SDS011;30184;42.018;23.670;2023-12-28T10:48:18;40.28;;;18.77;;
44480;SDS011;30184;42.018;23.670;2023-12-28T10:51:03;56.97;;;24.37;;
44480;SDS011;30184;42.018;23.670;2023-12-28T10:53:36;50.42;;;23.25;;
44480;SDS011;30184;42.018;23.670;2023-12-28T10:56:14;59.55;;;23.27;;
44480;SDS011;30184;42.018;23.670;2023-12-28T10:58:56;44.63;;;21.00;;
44480;SDS011;30184;42.018;23.670;2023-12-28T11:01:35;43.05;;;18.85;;
44480;SDS011;30184;42.018;23.670;2023-12-28T11:04:10;52.22;;;21.55;;
44480;SDS011;30184;42.018;23.670;2023-12-28T11:06:46;62.58;;;24.50;;
44480;SDS011;30184;42.018;23.670;2023-12-28T11:09:19;51.60;;;22.45;;
44480;SDS011;30184;42.018;23.670;2023-12-28T11:11:50;45.88;;;22.42;;
44480;SDS011;30184;42.018;23.670;2023-12-28T11:14:25;50.72;;;21.83;;
44480;SDS011;30184;42.018;23.670;2023-12-28T11:16:56;72.28;;;30.70;;
44480;SDS011;30184;42.018;23.670;2023-12-28T11:19:29;56.80;;;23.65;;
44480;SDS011;30184;42.018;23.670;2023-12-28T11:22:00;53.65;;;25.00;;
44480;SDS011;30184;42.018;23.670;2023-12-28T11:24:31;52.50;;;23.13;;
44480;SDS011;30184;42.018;23.670;2023-12-28T11:27:01;48.63;;;23.40;;
44480;SDS011;30184;42.018;23.670;2023-12-28T11:29:36;48.22;;;23.70;;
44480;SDS011;30184;42.018;23.670;2023-12-28T11:32:06;58.92;;;24.88;;
44480;SDS011;30184;42.018;23.670;2023-12-28T11:34:37;39.60;;;18.88;;
44480;SDS011;30184;42.018;23.670;2023-12-28T11:37:07;43.38;;;19.40;;
44480;SDS011;30184;42.018;23.670;2023-12-28T11:39:41;53.95;;;24.23;;
44480;SDS011;30184;42.018;23.670;2023-12-28T11:42:12;53.15;;;22.77;;
44480;SDS011;30184;42.018;23.670;2023-12-28T11:44:53;41.17;;;18.75;;
44480;SDS011;30184;42.018;23.670;2023-12-28T11:47:24;63.67;;;22.02;;
44480;SDS011;30184;42.018;23.670;2023-12-28T11:49:55;35.40;;;19.55;;
44480;SDS011;30184;42.018;23.670;2023-12-28T11:52:34;43.90;;;20.58;;
44480;SDS011;30184;42.018;23.670;2023-12-28T11:55:05;35.20;;;18.67;;
44480;SDS011;30184;42.018;23.670;2023-12-28T11:57:36;62.22;;;25.50;;
44480;SDS011;30184;42.018;23.670;2023-12-28T12:00:08;55.47;;;26.42;;
44480;SDS011;30184;42.018;23.670;2023-12-28T12:02:43;43.58;;;20.60;;
44480;SDS011;30184;42.018;23.670;2023-12-28T12:05:14;42.28;;;21.23;;
44480;SDS011;30184;42.018;23.670;2023-12-28T12:07:43;43.38;;;20.92;;
44480;SDS011;30184;42.018;23.670;2023-12-28T12:10:14;38.20;;;14.77;;
44480;SDS011;30184;42.018;23.670;2023-12-28T12:12:44;43.00;;;15.48;;
44480;SDS011;30184;42.018;23.670;2023-12-28T12:15:16;39.97;;;15.23;;
44480;SDS011;30184;42.018;23.670;2023-12-28T12:17:46;24.75;;;11.98;;
44480;SDS011;30184;42.018;23.670;2023-12-28T12:20:15;36.67;;;14.73;;
44480;SDS011;30184;42.018;23.670;2023-12-28T12:22:45;23.98;;;10.38;;
44480;SDS011;30184;42.018;23.670;2023-12-28T12:25:16;71.10;;;19.55;;
44480;SDS011;30184;42.018;23.670;2023-12-28T12:27:47;45.25;;;15.32;;
44480;SDS011;30184;42.018;23.670;2023-12-28T12:30:20;76.38;;;20.17;;
44480;SDS011;30184;42.018;23.670;2023-12-28T12:32:54;28.90;;;13.60;;
44480;SDS011;30184;42.018;23.670;2023-12-28T12:35:25;42.40;;;18.15;;
44480;SDS011;30184;42.018;23.670;2023-12-28T12:37:56;39.45;;;17.20;;
44480;SDS011;30184;42.018;23.670;2023-12-28T12:40:25;44.25;;;19.92;;
44480;SDS011;30184;42.018;23.670;2023-12-28T12:42:57;46.90;;;17.38;;
44480;SDS011;30184;42.018;23.670;2023-12-28T12:45:34;27.92;;;13.32;;
44480;SDS011;30184;42.018;23.670;2023-12-28T12:48:07;31.17;;;13.70;;
44480;SDS011;30184;42.018;23.670;2023-12-28T12:50:38;21.95;;;11.82;;
44480;SDS011;30184;42.018;23.670;2023-12-28T12:53:08;27.48;;;12.85;;
44480;SDS011;30184;42.018;23.670;2023-12-28T12:55:41;18.95;;;9.90;;
44480;SDS011;30184;42.018;23.670;2023-12-28T12:58:14;18.05;;;8.30;;
44480;SDS011;30184;42.018;23.670;2023-12-28T13:00:47;17.73;;;9.50;;
44480;SDS011;30184;42.018;23.670;2023-12-28T13:03:19;21.45;;;9.90;;
44480;SDS011;30184;42.018;23.670;2023-12-28T13:05:50;21.05;;;9.60;;
44480;SDS011;30184;42.018;23.670;2023-12-28T13:08:23;31.02;;;12.73;;
44480;SDS011;30184;42.018;23.670;2023-12-28T13:10:53;24.58;;;13.23;;
44480;SDS011;30184;42.018;23.670;2023-12-28T13:13:23;27.23;;;10.90;;
44480;SDS011;30184;42.018;23.670;2023-12-28T13:15:54;23.40;;;12.05;;
44480;SDS011;30184;42.018;23.670;2023-12-28T13:18:25;31.63;;;14.10;;
44480;SDS011;30184;42.018;23.670;2023-12-28T13:20:55;36.35;;;16.13;;
44480;SDS011;30184;42.018;23.670;2023-12-28T13:23:26;29.08;;;15.85;;
44480;SDS011;30184;42.018;23.670;2023-12-28T13:25:57;40.75;;;17.05;;
44480;SDS011;30184;42.018;23.670;2023-12-28T13:28:27;30.35;;;13.93;;
44480;SDS011;30184;42.018;23.670;2023-12-28T13:30:58;32.45;;;16.90;;
44480;SDS011;30184;42.018;23.670;2023-12-28T13:33:28;40.05;;;15.82;;
44480;SDS011;30184;42.018;23.670;2023-12-28T13:35:57;26.55;;;12.88;;
44480;SDS011;30184;42.018;23.670;2023-12-28T13:38:30;47.05;;;20.30;;
44480;SDS011;30184;42.018;23.670;2023-12-28T13:40:59;32.15;;;15.50;;
44480;SDS011;30184;42.018;23.670;2023-12-28T13:43:29;36.85;;;16.33;;
44480;SDS011;30184;42.018;23.670;2023-12-28T13:46:04;31.90;;;14.05;;
44480;SDS011;30184;42.018;23.670;2023-12-28T13:48:33;32.22;;;16.25;;
44480;SDS011;30184;42.018;23.670;2023-12-28T13:51:03;24.45;;;9.65;;
44480;SDS011;30184;42.018;23.670;2023-12-28T13:53:35;23.02;;;10.25;;
44480;SDS011;30184;42.018;23.670;2023-12-28T13:56:08;35.30;;;14.50;;
44480;SDS011;30184;42.018;23.670;2023-12-28T13:58:37;35.92;;;14.95;;
44480;SDS011;30184;42.018;23.670;2023-12-28T14:01:11;41.28;;;15.32;;
44480;SDS011;30184;42.018;23.670;2023-12-28T14:03:45;21.05;;;9.90;;
44480;SDS011;30184;42.018;23.670;2023-12-28T14:06:19;36.08;;;12.43;;
44480;SDS011;30184;42.018;23.670;2023-12-28T14:08:57;40.80;;;17.08;;
44480;SDS011;30184;42.018;23.670;2023-12-28T14:11:30;31.75;;;14.93;;
44480;SDS011;30184;42.018;23.670;2023-12-28T14:14:03;24.55;;;12.00;;
44480;SDS011;30184;42.018;23.670;2023-12-28T14:16:34;30.25;;;14.60;;
44480;SDS011;30184;42.018;23.670;2023-12-28T14:19:07;29.77;;;13.50;;
44480;SDS011;30184;42.018;23.670;2023-12-28T14:21:39;63.65;;;22.42;;
44480;SDS011;30184;42.018;23.670;2023-12-28T14:24:10;45.17;;;18.30;;
44480;SDS011;30184;42.018;23.670;2023-12-28T14:26:41;58.65;;;24.65;;
44480;SDS011;30184;42.018;23.670;2023-12-28T14:29:11;67.78;;;27.40;;
44480;SDS011;30184;42.018;23.670;2023-12-28T14:31:44;60.42;;;28.90;;
44480;SDS011;30184;42.018;23.670;2023-12-28T14:34:14;73.30;;;33.35;;
44480;SDS011;30184;42.018;23.670;2023-12-28T14:36:44;62.85;;;28.15;;
44480;SDS011;30184;42.018;23.670;2023-12-28T14:39:17;60.17;;;19.00;;
44480;SDS011;30184;42.018;23.670;2023-12-28T14:41:48;57.30;;;25.40;;
44480;SDS011;30184;42.018;23.670;2023-12-28T14:44:17;58.05;;;27.30;;
44480;SDS011;30184;42.018;23.670;2023-12-28T14:46:51;49.65;;;23.38;;
44480;SDS011;30184;42.018;23.670;2023-12-28T14:49:25;61.53;;;28.20;;
44480;SDS011;30184;42.018;23.670;2023-12-28T14:51:55;74.03;;;30.52;;
44480;SDS011;30184;42.018;23.670;2023-12-28T14:54:25;44.42;;;20.70;;
44480;SDS011;30184;42.018;23.670;2023-12-28T14:56:56;81.65;;;28.33;;
44480;SDS011;30184;42.018;23.670;2023-12-28T14:59:28;76.57;;;30.48;;